Time;durP1;ratioP1;P1;durP2;ratioP2;P2;SDS_P1;SDS_P2;PMS_P1;PMS_P2;Temp;Humidity;BMP_temperature;BMP_pressure;BME280_temperature;BME280_humidity;BME280_pressure;Samples;Min_cycle;Max_cycle;Signal;HPM_P1;HPM_P2
2022/05/28 00:01:11;;;;;;;;;;;;;;;;;;4997547;28;20047;-78
2022/05/28 00:03:37;;;;;;;;;;;9.40;99.90;;;;;;5002494;28;19959;-78
2022/05/28 00:06:03;;;;;;;;;;;;;;;;;;5006093;28;19918;-78
2022/05/28 00:08:29;;;;;;;;;;;;;;;;;;4996401;28;19910;-78
2022/05/28 00:10:55;;;;;;;;;;;;;;;;;;4990909;28;19968;-78
2022/05/28 00:13:21;;;;;;;;;;;;;;;;;;5000544;28;19917;-78
2022/05/28 00:15:47;;;;;;;;;;;;;;;;;;4993066;28;19924;-78
2022/05/28 00:18:12;;;;;;;;;;;;;;;;;;4997313;28;19968;-79
2022/05/28 00:20:39;;;;;;;;;;;;;;;;;;4997517;28;19932;-78
2022/05/28 00:23:05;;;;;;;;;;;;;;;;;;5001992;28;20365;-78
2022/05/28 00:25:31;;;;;;;;;;;;;;;;;;4994732;28;19955;-78
2022/05/28 00:27:57;;;;;;;;;;;9.00;99.90;;;;;;5004190;28;20016;-78
2022/05/28 00:30:22;;;;;;;;;;;8.80;99.90;;;;;;4997914;28;19924;-78
2022/05/28 00:32:48;;;;;;;;;;;;;;;;;;4996825;28;19917;-78
2022/05/28 00:35:15;;;;;;;;;;;;;;;;;;5001778;28;19926;-78
2022/05/28 00:37:41;;;;;;;;;;;;;;;;;;5005148;28;20011;-78
2022/05/28 00:40:07;;;;;;;;;;;;;;;;;;5000238;28;19917;-77
2022/05/28 00:42:33;;;;;;;;;;;;;;;;;;4999576;28;20001;-78
2022/05/28 00:44:59;;;;;;;;;;;;;;;;;;4999021;28;19952;-77
2022/05/28 00:47:24;;;;;;;;;;;;;;;;;;4997381;28;19921;-78
2022/05/28 00:49:50;;;;;;;;;;;;;;;;;;4997817;28;19963;-78
2022/05/28 00:52:16;;;;;;;;;;;;;;;;;;5000118;28;20265;-77
2022/05/28 00:54:42;;;;;;;;;;;;;;;;;;5006667;28;19913;-78
2022/05/28 00:57:08;;;;;;;;;;;;;;;;;;5004500;28;19913;-77
2022/05/28 00:59:34;;;;;;;;;;;;;;;;;;5006906;28;19917;-78
2022/05/28 01:02:00;;;;;;;;;;;;;;;;;;4999386;28;20502;-78
2022/05/28 01:04:27;;;;;;;;;;;;;;;;;;4998505;28;19917;-78
2022/05/28 01:06:53;;;;;;;;;;;;;;;;;;5002228;28;20004;-78
2022/05/28 01:09:19;;;;;;;;;;;;;;;;;;5001790;28;19914;-78
2022/05/28 01:11:44;;;;;;;;;;;;;;;;;;5000835;28;20639;-77
2022/05/28 01:14:10;;;;;;;;;;;;;;;;;;5001505;28;19913;-78
2022/05/28 01:16:36;;;;;;;;;;;;;;;;;;5001384;28;20340;-77
2022/05/28 01:19:02;;;;;;;;;;;;;;;;;;4989452;28;20143;-77
2022/05/28 01:21:45;;;;;;;;;;;8.60;99.90;;;;;;4999029;28;19969;-78
2022/05/28 01:24:11;;;;;;;;;;;;;;;;;;5003406;28;20023;-77
2022/05/28 01:26:42;;;;;;;;;;;8.50;99.90;;;;;;4999277;28;20442;-78
2022/05/28 01:29:08;;;;;;;;;;;;;;;;;;5007464;28;19916;-78
2022/05/28 01:31:34;;;;;;;;;;;;;;;;;;5003309;28;19913;-78
2022/05/28 01:34:00;;;;;;;;;;;;;;;;;;5004308;28;20447;-79
2022/05/28 01:36:26;;;;;;;;;;;;;;;;;;5004804;28;20000;-77
2022/05/28 01:38:52;;;;;;;;;;;;;;;;;;5006776;28;19936;-78
2022/05/28 01:41:17;;;;;;;;;;;;;;;;;;4999547;28;19913;-78
2022/05/28 01:43:43;;;;;;;;;;;;;;;;;;5002605;28;19918;-78
2022/05/28 01:46:09;;;;;;;;;;;;;;;;;;4999392;28;19914;-78
2022/05/28 01:48:36;;;;;;;;;;;;;;;;;;5000625;28;19913;-78
2022/05/28 01:51:02;;;;;;;;;;;;;;;;;;5002541;28;20530;-78
2022/05/28 01:56:12;;;;;;;;;;;;;;;;;;5004201;28;19928;-78
2022/05/28 01:58:38;;;;;;;;;;;;;;;;;;5005650;28;19936;-78
2022/05/28 02:01:04;;;;;;;;;;;;;;;;;;5001967;28;20358;-78
2022/05/28 02:03:31;;;;;;;;;;;;;;;;;;4991561;28;19909;-77
2022/05/28 02:05:56;;;;;;;;;;;;;;;;;;5007053;28;19964;-78
2022/05/28 02:08:22;;;;;;;;;;;;;;;;;;5004624;28;20381;-78
2022/05/28 02:10:48;;;;;;;;;;;;;;;;;;4998936;28;19956;-78
2022/05/28 02:13:14;;;;;;;;;;;;;;;;;;5005581;28;19944;-78
2022/05/28 02:15:40;;;;;;;;;;;;;;;;;;5004199;28;19913;-78
2022/05/28 02:18:06;;;;;;;;;;;;;;;;;;5004754;28;19917;-78
2022/05/28 02:20:32;;;;;;;;;;;;;;;;;;5004867;28;20400;-78
2022/05/28 02:22:58;;;;;;;;;;;;;;;;;;5006311;28;19992;-78
2022/05/28 02:25:28;;;;;;;;;;;6.90;99.90;;;;;;5005998;28;20381;-78
2022/05/28 02:27:53;;;;;;;;;;;;;;;;;;5007603;28;19921;-77
2022/05/28 02:30:19;;;;;;;;;;;;;;;;;;5006257;28;19916;-78
2022/05/28 02:32:45;;;;;;;;;;;;;;;;;;5003860;28;19910;-78
2022/05/28 02:35:11;;;;;;;;;;;;;;;;;;5002771;28;19932;-78
2022/05/28 02:37:37;;;;;;;;;;;;;;;;;;5004295;28;19945;-78
2022/05/28 02:40:02;;;;;;;;;;;7.60;99.90;;;;;;5008802;28;19910;-78
2022/05/28 02:42:28;;;;;;;;;;;;;;;;;;5007019;28;19940;-78
2022/05/28 02:44:54;;;;;;;;;;;;;;;;;;5004095;28;19973;-77
2022/05/28 02:47:20;;;;;;;;;;;;;;;;;;5003961;28;20393;-77
2022/05/28 02:49:46;;;;;;;;;;;;;;;;;;5003176;28;20008;-77
2022/05/28 02:52:14;;;;;;;;;;;;;;;;;;5007012;28;19917;-78
2022/05/28 02:54:39;;;;;;;;;;;7.70;99.90;;;;;;5003368;28;19996;-77
2022/05/28 02:57:05;;;;;;;;;;;;;;;;;;5007322;28;19916;-78
2022/05/28 02:59:31;;;;;;;;;;;;;;;;;;5009279;28;19909;-77
2022/05/28 03:01:57;;;;;;;;;;;;;;;;;;5004438;28;19959;-78
2022/05/28 03:04:23;;;;;;;;;;;;;;;;;;5003564;28;20572;-78
2022/05/28 03:06:49;;;;;;;;;;;;;;;;;;5008940;28;19960;-77
2022/05/28 03:09:14;;;;;;;;;;;;;;;;;;5006062;28;19921;-78
2022/05/28 03:11:40;;;;;;;;;;;;;;;;;;5003068;28;20358;-78
2022/05/28 03:14:06;;;;;;;;;;;;;;;;;;4998801;28;19914;-78
2022/05/28 03:16:32;;;;;;;;;;;;;;;;;;5002584;28;20452;-78
2022/05/28 03:18:58;;;;;;;;;;;;;;;;;;4998970;28;19913;-77
2022/05/28 03:21:23;;;;;;;;;;;6.70;99.90;;;;;;5010744;28;20011;-77
2022/05/28 03:23:49;;;;;;;;;;;6.80;99.90;;;;;;5012715;28;20346;-77
2022/05/28 03:26:15;;;;;;;;;;;;;;;;;;5016504;28;19924;-77
2022/05/28 03:28:41;;;;;;;;;;;;;;;;;;5015878;28;19928;-77
2022/05/28 03:31:07;;;;;;;;;;;;;;;;;;5013972;28;19952;-77
2022/05/28 03:33:32;;;;;;;;;;;;;;;;;;5010638;28;19910;-77
2022/05/28 03:35:58;;;;;;;;;;;;;;;;;;5005567;28;20306;-78
2022/05/28 03:38:24;;;;;;;;;;;;;;;;;;5002516;28;19920;-78
2022/05/28 03:40:50;;;;;;;;;;;;;;;;;;5006791;28;19909;-77
2022/05/28 03:43:16;;;;;;;;;;;;;;;;;;5009062;28;20055;-78
2022/05/28 03:45:42;;;;;;;;;;;;;;;;;;5009794;28;19925;-77
2022/05/28 03:48:08;;;;;;;;;;;;;;;;;;5008787;28;19979;-77
2022/05/28 03:50:33;;;;;;;;;;;;;;;;;;5015016;28;20158;-77
2022/05/28 03:52:59;;;;;;;;;;;;;;;;;;5008291;28;19913;-77
2022/05/28 03:55:25;;;;;;;;;;;;;;;;;;5000533;28;19972;-76
2022/05/28 03:57:51;;;;;;;;;;;;;;;;;;5002821;28;20758;-77
2022/05/28 04:00:17;;;;;;;;;;;;;;;;;;5003762;28;19920;-77
2022/05/28 04:02:43;;;;;;;;;;;;;;;;;;5002105;28;19913;-77
2022/05/28 04:05:09;;;;;;;;;;;;;;;;;;4997940;28;19953;-77
2022/05/28 04:07:35;;;;;;;;;;;;;;;;;;5000235;28;19925;-77
2022/05/28 04:10:01;;;;;;;;;;;;;;;;;;4997538;28;19909;-77
2022/05/28 04:12:27;;;;;;;;;;;;;;;;;;5006924;28;19971;-78
2022/05/28 04:14:53;;;;;;;;;;;;;;;;;;5005977;28;19909;-77
2022/05/28 04:17:19;;;;;;;;;;;;;;;;;;5002100;28;19935;-77
2022/05/28 04:19:44;;;;;;;;;;;;;;;;;;5002952;28;19913;-77
2022/05/28 04:22:10;;;;;;;;;;;;;;;;;;5000799;28;20425;-77
2022/05/28 04:24:36;;;;;;;;;;;;;;;;;;4998018;28;19926;-78
2022/05/28 04:27:02;;;;;;;;;;;;;;;;;;5003376;28;19920;-77
2022/05/28 04:29:28;;;;;;;;;;;;;;;;;;5005697;28;20008;-77
2022/05/28 04:31:54;;;;;;;;;;;;;;;;;;5004487;28;19917;-78
2022/05/28 04:34:20;;;;;;;;;;;;;;;;;;5003284;28;19917;-78
2022/05/28 04:36:45;;;;;;;;;;;6.80;99.90;;;;;;5006268;28;19909;-77
2022/05/28 04:39:11;;;;;;;;;;;;;;;;;;5000275;28;19927;-77
2022/05/28 04:41:37;;;;;;;;;;;;;;;;;;5002094;28;20831;-77
2022/05/28 04:44:03;;;;;;;;;;;;;;;;;;4997375;28;20015;-78
2022/05/28 04:46:29;;;;;;;;;;;;;;;;;;5003576;28;19920;-77
2022/05/28 04:48:54;;;;;;;;;;;7.20;99.90;;;;;;4996017;28;19994;-77
2022/05/28 04:51:20;;;;;;;;;;;;;;;;;;4999144;28;19918;-77
2022/05/28 04:53:46;;;;;;;;;;;8.20;99.90;;;;;;5003317;28;19909;-77
2022/05/28 04:56:12;;;;;;;0.70;0.40;;;;;;;;;;5001594;28;20321;-77
2022/05/28 04:58:38;;;;;;;;;;;;;;;;;;4997572;28;20021;-77
2022/05/28 05:01:05;;;;;;;;;;;;;;;;;;5003279;28;19921;-77
2022/05/28 05:03:31;;;;;;;;;;;;;;;;;;4999017;28;20012;-77
2022/05/28 05:05:56;;;;;;;7.32;1.17;;;9.00;99.90;;;;;;5002496;28;20003;-77
2022/05/28 05:08:23;;;;;;;1.77;0.68;;;;;;;;;;4997826;28;20037;-77
2022/05/28 05:10:49;;;;;;;2.97;0.90;;;;;;;;;;5000860;28;20026;-77
2022/05/28 05:13:15;;;;;;;11.30;2.67;;;;;;;;;;5017002;28;20033;-77
2022/05/28 05:15:41;;;;;;;4.40;1.80;;;;;;;;;;4997762;28;20390;-77
2022/05/28 05:18:07;;;;;;;1.70;0.73;;;;;;;;;;4999523;28;20066;-77
2022/05/28 05:20:33;;;;;;;2.20;1.05;;;;;;;;;;4998090;28;20056;-77
2022/05/28 05:22:59;;;;;;;3.80;0.70;;;;;;;;;;5000409;28;20205;-77
2022/05/28 05:25:26;;;;;;;3.30;1.30;;;;;;;;;;4998056;28;20117;-77
2022/05/28 05:27:52;;;;;;;0.88;0.68;;;;;;;;;;4992779;28;20495;-77
2022/05/28 05:30:18;;;;;;;;;;;;;;;;;;5000745;28;20153;-77
2022/05/28 05:32:44;;;;;;;;;;;;;;;;;;5001922;28;20008;-77
2022/05/28 05:35:10;;;;;;;;;;;;;;;;;;5001235;28;19916;-78
2022/05/28 05:37:36;;;;;;;;;;;10.70;99.90;;;;;;4997524;28;19940;-77
2022/05/28 05:40:02;;;;;;;;;;;10.80;99.90;;;;;;5003162;28;19917;-78
2022/05/28 05:42:28;;;;;;;;;;;;;;;;;;5003526;28;19964;-77
2022/05/28 05:44:54;;;;;;;;;;;;;;;;;;5000304;28;19913;-78
2022/05/28 05:47:19;;;;;;;;;;;10.90;99.90;;;;;;4999000;28;19965;-78
2022/05/28 05:49:45;;;;;;;;;;;11.30;99.90;;;;;;4993287;28;20407;-77
2022/05/28 05:52:10;;;;;;;;;;;11.40;99.90;;;;;;4994799;28;19955;-78
2022/05/28 05:54:36;;;;;;;;;;;;;;;;;;5002713;28;20266;-79
2022/05/28 05:57:02;;;;;;;10.10;1.55;;;;;;;;;;4993937;28;19913;-78
2022/05/28 05:59:28;;;;;;;;;;;14.20;99.90;;;;;;4995210;28;20045;-79
2022/05/28 06:01:54;;;;;;;5.85;1.08;;;;;;;;;;5002551;28;20027;-79
2022/05/28 06:04:20;;;;;;;6.20;0.68;;;;;;;;;;4994254;28;20093;-80
2022/05/28 06:06:46;;;;;;;0.50;0.30;;;;;;;;;;5000490;28;20083;-79
2022/05/28 06:09:12;;;;;;;6.68;0.50;;;19.00;95.70;;;;;;5003768;28;20448;-78
2022/05/28 06:11:38;;;;;;;1.42;0.40;;;;;;;;;;4995148;28;20018;-78
2022/05/28 06:14:04;;;;;;;3.50;0.35;;;18.10;84.00;;;;;;5002449;28;20030;-78
2022/05/28 06:16:30;;;;;;;4.68;0.60;;;19.80;81.00;;;;;;4996485;28;20041;-76
2022/05/28 06:18:56;;;;;;;1.70;0.63;;;;;;;;;;4997122;28;20102;-79
2022/05/28 06:21:22;;;;;;;0.28;0.10;;;;;;;;;;5006660;28;20329;-79
2022/05/28 06:23:48;;;;;;;1.70;0.35;;;24.30;69.00;;;;;;5004392;28;20026;-80
2022/05/28 06:26:14;;;;;;;2.00;0.30;;;;;;;;;;5015224;28;20018;-79
2022/05/28 06:28:40;;;;;;;1.50;0.47;;;25.40;59.10;;;;;;4994657;28;20112;-78
2022/05/28 06:31:08;;;;;;;1.20;0.40;;;26.70;48.50;;;;;;5006010;28;20129;-79
2022/05/28 06:33:36;;;;;;;4.70;0.65;;;27.20;47.10;;;;;;4998384;28;20030;-78
2022/05/28 06:36:03;;;;;;;1.70;0.68;;;28.40;46.20;;;;;;5007695;28;20037;-79
2022/05/28 06:38:29;;;;;;;1.65;0.20;;;28.40;55.70;;;;;;5003900;28;20076;-79
2022/05/28 06:40:55;;;;;;;2.13;0.45;;;28.60;47.60;;;;;;5007845;28;20516;-80
2022/05/28 06:43:21;;;;;;;1.70;0.30;;;28.80;40.90;;;;;;5003556;28;20497;-78
2022/05/28 06:45:47;;;;;;;;;;;28.90;43.00;;;;;;5008483;28;20141;-78
2022/05/28 06:48:12;;;;;;;;;;;31.20;39.50;;;;;;5003116;28;19917;-76
2022/05/28 06:53:22;;;;;;;;;;;;;;;;;;5006327;28;19919;-77
2022/05/28 06:55:48;;;;;;;;;;;30.80;39.20;;;;;;5012459;28;20048;-79
2022/05/28 06:58:14;;;;;;;0.70;0.17;;;31.10;38.30;;;;;;5007370;28;19916;-78
2022/05/28 07:00:41;;;;;;;3.28;0.32;;;30.50;50.80;;;;;;5000536;28;20029;-79
2022/05/28 07:03:11;;;;;;;2.92;0.57;;;;;;;;;;4999584;28;20234;-79
2022/05/28 07:05:37;;;;;;;0.73;0.30;;;30.40;50.50;;;;;;5006330;28;20029;-78
2022/05/28 07:08:03;;;;;;;3.58;0.60;;;30.40;47.60;;;;;;5008105;28;20037;-79
2022/05/28 07:10:29;;;;;;;5.45;0.82;;;29.90;41.60;;;;;;4999803;28;20040;-79
2022/05/28 07:12:55;;;;;;;2.40;0.45;;;;;;;;;;5001181;28;20029;-77
2022/05/28 07:15:20;;;;;;;;;;;;;;;;;;4998722;28;20037;-79
2022/05/28 07:17:46;;;;;;;;;;;29.40;35.40;;;;;;5003044;28;19917;-79
2022/05/28 07:20:12;;;;;;;;;;;29.20;35.90;;;;;;4990448;28;20048;-80
2022/05/28 07:22:37;;;;;;;;;;;28.20;37.40;;;;;;5001031;28;19909;-78
2022/05/28 07:25:03;;;;;;;;;;;27.80;40.10;;;;;;5002378;28;19921;-79
2022/05/28 07:27:28;;;;;;;;;;;28.20;39.10;;;;;;5003132;28;19979;-81
2022/05/28 07:29:55;;;;;;;;;;;28.40;40.30;;;;;;5002530;28;19913;-81
2022/05/28 07:32:22;;;;;;;;;;;;;;;;;;5001423;28;19960;-77
2022/05/28 07:34:48;;;;;;;;;;;;;;;;;;5007498;28;19953;-80
2022/05/28 07:37:14;;;;;;;;;;;;;;;;;;4998141;28;20386;-80
2022/05/28 07:39:40;;;;;;;;;;;24.60;45.90;;;;;;5010646;28;19910;-79
2022/05/28 07:42:05;;;;;;;;;;;22.80;49.60;;;;;;5005381;28;19920;-84
2022/05/28 07:44:31;;;;;;;;;;;;;;;;;;5008321;28;20273;-80
2022/05/28 07:46:57;;;;;;;;;;;;;;;;;;5002768;28;20073;-82
2022/05/28 07:49:23;;;;;;;;;;;;;;;;;;5000519;28;19958;-83
2022/05/28 07:51:48;;;;;;;;;;;21.30;52.70;;;;;;5005395;28;20039;-81
2022/05/28 07:54:16;;;;;;;;;;;21.00;55.40;;;;;;5011036;28;20323;-80
2022/05/28 07:56:42;;;;;;;;;;;;;;;;;;5002704;28;20012;-82
2022/05/28 07:59:07;;;;;;;;;;;19.10;58.60;;;;;;4997189;28;19992;-83
2022/05/28 08:01:35;;;;;;;;;;;20.10;59.00;;;;;;4999975;28;19916;-78
2022/05/28 08:04:01;;;;;;;;;;;;;;;;;;4998580;28;20007;-80
2022/05/28 08:06:26;;;;;;;;;;;19.40;62.10;;;;;;5000434;28;20004;-82
2022/05/28 08:08:52;;;;;;;;;;;19.20;60.00;;;;;;5001025;28;19928;-85
2022/05/28 08:11:18;;;;;;;;;;;19.30;61.20;;;;;;5011209;28;19917;-84
2022/05/28 08:13:44;;;;;;;;;;;;;;;;;;5016728;28;19910;-85
2022/05/28 08:16:09;;;;;;;;;;;;;;;;;;5011064;28;19961;-83
2022/05/28 08:18:37;;;;;;;;;;;18.90;60.50;;;;;;5010586;28;20381;-84
2022/05/28 08:23:47;;;;;;;;;;;19.60;59.80;;;;;;5023570;28;19904;-85
2022/05/28 08:26:13;;;;;;;;;;;20.90;58.90;;;;;;5027211;28;19897;-90
2022/05/28 08:28:39;;;;;;;;;;;;;;;;;;5030193;28;19917;-84
2022/05/28 08:31:05;;;;;;;;;;;;;;;;;;5025552;28;19969;-87
2022/05/28 08:33:32;;;;;;;;;;;;;;;;;;5021597;28;19909;-87
2022/05/28 08:35:58;;;;;;;;;;;;;;;;;;5008189;28;19948;-87
2022/05/28 08:38:25;;;;;;;;;;;20.00;62.70;;;;;;4996152;28;19913;-84
2022/05/28 08:40:51;;;;;;;;;;;;;;;;;;5013246;28;19909;-85
2022/05/28 08:43:17;;;;;;;;;;;;;;;;;;5007788;28;19925;-85
2022/05/28 08:45:43;;;;;;;;;;;;;;;;;;5007446;28;19995;-85
2022/05/28 08:48:09;;;;;;;;;;;;;;;;;;4998282;28;19925;-85
2022/05/28 08:50:41;;;;;;;;;;;20.70;59.30;;;;;;5006749;28;19912;-84
2022/05/28 08:53:06;;;;;;;;;;;;;;;;;;5002473;28;22178;-84
2022/05/28 08:55:33;;;;;;;;;;;21.80;54.50;;;;;;5015989;28;19941;-85
2022/05/28 08:58:05;;;;;;;;;;;22.10;52.60;;;;;;5015466;28;19898;-86
2022/05/28 09:00:33;;;;;;;;;;;22.70;51.80;;;;;;5016317;28;20042;-87
2022/05/28 09:03:22;;;;;;;;;;;22.80;52.10;;;;;;5012575;28;19917;-85
2022/05/28 09:05:47;;;;;;;;;;;23.10;50.80;;;;;;5002581;28;19925;-84
2022/05/28 09:08:13;;;;;;;;;;;24.30;48.50;;;;;;5009320;28;19920;-86
2022/05/28 09:10:39;;;;;;;;;;;;;;;;;;5007508;28;19913;-82
2022/05/28 09:13:07;;;;;;;;;;;27.40;44.90;;;;;;5010105;28;19909;-82
2022/05/28 09:15:35;;;;;;;;;;;28.60;43.30;;;;;;4998084;28;19922;-81
2022/05/28 09:18:00;;;;;;;;;;;26.60;42.60;;;;;;5001598;28;19909;-80
2022/05/28 09:20:32;;;;;;;;;;;26.30;43.40;;;;;;5007674;28;19925;-81
2022/05/28 09:22:58;;;;;;;;;;;;;;;;;;5009007;28;19914;-84
2022/05/28 09:25:25;;;;;;;;;;;23.80;48.70;;;;;;4997993;28;19909;-80
2022/05/28 09:27:51;;;;;;;;;;;;;;;;;;5001662;28;20417;-81
2022/05/28 09:30:16;;;;;;;;;;;;;;;;;;4998994;28;19910;-78
2022/05/28 09:32:42;;;;;;;;;;;;;;;;;;4994918;28;20297;-79
2022/05/28 09:35:09;;;;;;;;;;;;;;;;;;5004512;28;19909;-80
2022/05/28 09:37:35;;;;;;;;;;;;;;;;;;5003531;28;19924;-80
2022/05/28 09:40:02;;;;;;;;;;;;;;;;;;5003586;28;20518;-81
2022/05/28 09:42:28;;;;;;;;;;;;;;;;;;5000892;28;19921;-79
2022/05/28 09:44:54;;;;;;;;;;;;;;;;;;5006401;28;20420;-79
2022/05/28 09:47:38;;;;;;;;;;;;;;;;;;4996872;28;20176;-78
2022/05/28 09:50:13;;;;;;;;;;;20.40;57.00;;;;;;5011444;28;19952;-79
2022/05/28 09:54:16;;;;;;;;;;;;;;;;;;5007647;28;19924;-78
2022/05/28 09:55:24;;;;;;;;;;;;;;;;;;5013075;28;19925;-77
2022/05/28 09:57:50;;;;;;;;;;;;;;;;;;5008652;28;20013;-77
2022/05/28 10:00:16;;;;;;;;;;;;;;;;;;5021845;28;19952;-77
2022/05/28 10:02:42;;;;;;;;;;;;;;;;;;5014634;28;19914;-78
2022/05/28 10:05:09;;;;;;;;;;;;;;;;;;5016146;28;19913;-79
2022/05/28 10:07:53;;;;;;;;;;;17.10;66.40;;;;;;5015259;28;20404;-79
2022/05/28 10:10:19;;;;;;;;;;;;;;;;;;5019567;28;19916;-78
2022/05/28 10:12:45;;;;;;;;;;;16.90;65.80;;;;;;5013672;28;20311;-80
2022/05/28 10:15:11;;;;;;;;;;;;;;;;;;4999212;28;19909;-80
2022/05/28 10:17:37;;;;;;;;;;;;;;;;;;5006830;28;19909;-78
2022/05/28 10:20:03;;;;;;;;;;;;;;;;;;4996355;28;19910;-77
2022/05/28 10:22:29;;;;;;;;;;;;;;;;;;4997625;28;20019;-78
2022/05/28 10:24:55;;;;;;;;;;;;;;;;;;5002187;28;19917;-78
2022/05/28 10:27:21;;;;;;;;;;;;;;;;;;4994879;28;20655;-77
2022/05/28 10:29:47;;;;;;;;;;;;;;;;;;4995937;28;19920;-77
2022/05/28 10:32:13;;;;;;;;;;;;;;;;;;4993606;28;19948;-77
2022/05/28 10:34:43;;;;;;;;;;;19.20;58.40;;;;;;4993466;28;19916;-77
2022/05/28 10:37:09;;;;;;;;;;;;;;;;;;4998779;28;19917;-77
2022/05/28 10:39:37;;;;;;;;;;;;;;;;;;5005539;28;20361;-77
2022/05/28 10:42:03;;;;;;;;;;;;;;;;;;4999710;28;19916;-78
2022/05/28 10:44:29;;;;;;;;;;;;;;;;;;5004396;28;20389;-79
2022/05/28 10:47:35;;;;;;;;;;;18.50;57.60;;;;;;4997896;28;19964;-77
2022/05/28 10:50:01;;;;;;;;;;;;;;;;;;4987269;28;19925;-78
2022/05/28 10:52:27;;;;;;;;;;;;;;;;;;4999400;28;20080;-77
2022/05/28 10:54:53;;;;;;;;;;;;;;;;;;4998587;28;19921;-78
2022/05/28 10:57:19;;;;;;;;;;;;;;;;;;4997264;28;19917;-78
2022/05/28 10:59:45;;;;;;;;;;;;;;;;;;4989739;28;19920;-77
2022/05/28 11:02:11;;;;;;;;;;;;;;;;;;4993553;28;19936;-78
2022/05/28 11:04:37;;;;;;;;;;;;;;;;;;4999654;28;19916;-78
2022/05/28 11:07:06;;;;;;;;;;;;;;;;;;4996086;28;19913;-78
2022/05/28 11:09:32;;;;;;;;;;;;;;;;;;4997695;28;19917;-77
2022/05/28 11:12:10;;;;;;;;;;;18.50;57.70;;;;;;4995005;28;20745;-81
2022/05/28 11:14:36;;;;;;;;;;;;;;;;;;4999908;28;19920;-79
2022/05/28 11:17:03;;;;;;;;;;;;;;;;;;4997862;28;20007;-78
2022/05/28 11:19:29;;;;;;;;;;;;;;;;;;5019974;28;19976;-79
2022/05/28 11:21:55;;;;;;;;;;;;;;;;;;5000166;28;20480;-78
2022/05/28 11:24:21;;;;;;;;;;;;;;;;;;4997441;28;19914;-78
2022/05/28 11:26:56;;;;;;;;;;;18.60;59.30;;;;;;4994768;28;19920;-78
2022/05/28 11:29:22;;;;;;;;;;;;;;;;;;4991796;28;19929;-78
2022/05/28 11:31:48;;;;;;;;;;;;;;;;;;4995306;28;19917;-80
2022/05/28 11:34:14;;;;;;;;;;;;;;;;;;4997466;28;19967;-77
2022/05/28 11:36:40;;;;;;;;;;;;;;;;;;4999883;28;19918;-78
2022/05/28 11:39:10;;;;;;;;;;;19.10;55.80;;;;;;5001049;28;20392;-78
2022/05/28 11:41:36;;;;;;;;;;;;;;;;;;5000473;28;19917;-77
2022/05/28 11:44:02;;;;;;;;;;;;;;;;;;5000516;28;19917;-76
2022/05/28 11:46:28;;;;;;;;;;;;;;;;;;4992017;28;20261;-78
2022/05/28 11:51:46;;;;;;;;;;;;;;;;;;4993345;28;20325;-78
2022/05/28 11:54:12;;;;;;;;;;;;;;;;;;4998279;28;19925;-78
2022/05/28 11:56:38;;;;;;;;;;;20.60;54.00;;;;;;5000558;28;20348;-77
2022/05/28 11:59:04;;;;;;;;;;;;;;;;;;4998735;28;19941;-82
2022/05/28 12:01:31;;;;;;;;;;;19.60;54.10;;;;;;4997364;28;19913;-81
2022/05/28 12:03:57;;;;;;;;;;;;;;;;;;5003614;28;19936;-83
2022/05/28 12:06:23;;;;;;;;;;;;;;;;;;5007444;28;19958;-80
2022/05/28 12:08:49;;;;;;;;;;;;;;;;;;5001079;28;20012;-83
2022/05/28 12:11:30;;;;;;;;;;;20.30;55.60;;;;;;5003386;28;19921;-80
2022/05/28 12:14:00;;;;;;;;;;;19.00;55.10;;;;;;5006113;28;19975;-81
2022/05/28 12:16:25;;;;;;;;;;;;;;;;;;5007323;28;20396;-81
2022/05/28 12:18:51;;;;;;;;;;;;;;;;;;4999512;28;20051;-80
2022/05/28 12:21:17;;;;;;;;;;;;;;;;;;4992575;28;19909;-82
2022/05/28 12:23:44;;;;;;;;;;;;;;;;;;5001005;28;19967;-83
2022/05/28 12:29:13;;;;;;;;;;;;;;;;;;5000316;28;20193;-81
2022/05/28 12:31:40;;;;;;;;;;;;;;;;;;4999639;28;19910;-79
2022/05/28 12:34:07;;;;;;;;;;;21.10;55.70;;;;;;5000414;28;19909;-81
2022/05/28 12:36:33;;;;;;;;;;;;;;;;;;5006925;28;19913;-81
2022/05/28 12:39:24;;;;;;;;;;;21.20;55.80;;;;;;5005341;28;19924;-81
2022/05/28 12:41:50;;;;;;;;;;;;;;;;;;4999697;28;19917;-82
2022/05/28 12:44:16;;;;;;;;;;;;;;;;;;5007129;28;19967;-80
2022/05/28 12:46:42;;;;;;;;;;;;;;;;;;5007365;28;20947;-81
2022/05/28 12:49:22;;;;;;;;;;;20.90;55.50;;;;;;5001268;28;19932;-81
2022/05/28 12:51:48;;;;;;;;;;;;;;;;;;4998721;28;19973;-80
2022/05/28 12:54:14;;;;;;;;;;;;;;;;;;4998539;28;20538;-80
2022/05/28 12:56:44;;;;;;;;;;;20.60;54.40;;;;;;5002176;28;20044;-80
2022/05/28 12:59:29;;;;;;;;;;;20.60;55.30;;;;;;5000904;28;20002;-80
2022/05/28 13:02:00;;;;;;;;;;;19.80;56.20;;;;;;5001394;28;19910;-80
2022/05/28 13:04:28;;;;;;;;;;;21.00;53.70;;;;;;5008984;28;21667;-80
2022/05/28 13:06:54;;;;;;;;;;;;;;;;;;5001890;28;20368;-80
2022/05/28 13:09:24;;;;;;;;;;;20.60;53.70;;;;;;5000778;28;19918;-80
2022/05/28 13:11:50;;;;;;;;;;;;;;;;;;5002882;28;20169;-80
2022/05/28 13:14:16;;;;;;;;;;;;;;;;;;4997836;28;20388;-79
2022/05/28 13:16:42;;;;;;;;;;;;;;;;;;5002846;28;19925;-80
2022/05/28 13:19:08;;;;;;;;;;;;;;;;;;5007355;28;20317;-81
2022/05/28 13:21:34;;;;;;;;;;;;;;;;;;5002962;28;20040;-79
2022/05/28 13:24:13;;;;;;;;;;;18.90;54.80;;;;;;5007859;28;20353;-79
2022/05/28 13:26:39;;;;;;;;;;;;;;;;;;5004998;28;19964;-80
2022/05/28 13:29:05;;;;;;;;;;;;;;;;;;5009644;28;19918;-79
2022/05/28 13:31:31;;;;;;;;;;;;;;;;;;5002072;28;19917;-81
2022/05/28 13:33:57;;;;;;;;;;;;;;;;;;5003619;28;19929;-79
2022/05/28 13:36:22;;;;;;;;;;;;;;;;;;5008999;28;20309;-78
2022/05/28 13:38:48;;;;;;;;;;;;;;;;;;5002923;28;19909;-78
2022/05/28 13:41:14;;;;;;;;;;;;;;;;;;5003345;28;20019;-79
2022/05/28 13:43:40;;;;;;;;;;;;;;;;;;4991109;28;19920;-81
2022/05/28 13:46:09;;;;;;;;;;;;;;;;;;5001993;28;20624;-82
2022/05/28 13:48:36;;;;;;;;;;;;;;;;;;5001069;28;19932;-81
2022/05/28 13:51:02;;;;;;;;;;;;;;;;;;5007046;28;20396;-81
2022/05/28 13:53:28;;;;;;;;;;;;;;;;;;5005713;28;19909;-80
2022/05/28 13:55:54;;;;;;;;;;;;;;;;;;5006177;28;19913;-81
2022/05/28 13:58:20;;;;;;;;;;;;;;;;;;4997600;28;20413;-83
2022/05/28 14:00:56;;;;;;;;;;;17.50;63.50;;;;;;5002741;28;19960;-81
2022/05/28 14:03:22;;;;;;;;;;;;;;;;;;5009891;28;20024;-81
2022/05/28 14:05:49;;;;;;;;;;;;;;;;;;5027122;28;19901;-80
2022/05/28 14:08:14;;;;;;;;;;;;;;;;;;5020575;28;19909;-82
2022/05/28 14:10:40;;;;;;;;;;;;;;;;;;5015642;28;20377;-80
2022/05/28 14:13:06;;;;;;;;;;;;;;;;;;5008010;28;19909;-80
2022/05/28 14:15:32;;;;;;;;;;;;;;;;;;5006458;28;19913;-80
2022/05/28 14:17:58;;;;;;;;;;;18.00;61.50;;;;;;5001468;28;19920;-80
2022/05/28 14:20:24;;;;;;;;;;;;;;;;;;5001743;28;19917;-79
2022/05/28 14:22:50;;;;;;;;;;;;;;;;;;5004926;28;19909;-79
2022/05/28 14:25:16;;;;;;;;;;;;;;;;;;4998904;28;19948;-82
2022/05/28 14:27:42;;;;;;;;;;;;;;;;;;5003889;28;20393;-80
2022/05/28 14:30:08;;;;;;;;;;;;;;;;;;4997130;28;19913;-86
2022/05/28 14:32:34;;;;;;;;;;;;;;;;;;5002266;28;19956;-80
2022/05/28 14:35:00;;;;;;;;;;;;;;;;;;4997917;28;19941;-79
2022/05/28 14:37:30;;;;;;;;;;;18.40;58.80;;;;;;5003355;28;20337;-79
2022/05/28 14:39:58;;;;;;;;;;;;;;;;;;5006122;28;19910;-79
2022/05/28 14:42:31;;;;;;;;;;;18.60;56.90;;;;;;4995766;28;19971;-79
2022/05/28 14:44:57;;;;;;;;;;;;;;;;;;4996533;28;21976;-78
2022/05/28 14:47:28;;;;;;;;;;;18.00;54.90;;;;;;4996912;28;20043;-80
2022/05/28 14:49:55;;;;;;;;;;;;;;;;;;4996677;28;20424;-80
2022/05/28 14:52:21;;;;;;;;;;;;;;;;;;5004829;28;20396;-79
2022/05/28 14:54:47;;;;;;;;;;;;;;;;;;5007096;28;19910;-79
2022/05/28 14:57:13;;;;;;;;;;;;;;;;;;5004473;28;19956;-79
2022/05/28 14:59:38;;;;;;;;;;;;;;;;;;5009893;28;20609;-78
2022/05/28 15:02:04;;;;;;;;;;;;;;;;;;5002136;28;19996;-79
2022/05/28 15:04:30;;;;;;;;;;;;;;;;;;5004639;28;19945;-80
2022/05/28 15:06:58;;;;;;;;;;;;;;;;;;5014605;28;19914;-79
2022/05/28 15:09:27;;;;;;;;;;;17.90;56.60;;;;;;5021737;28;19968;-80
2022/05/28 15:11:52;;;;;;;;;;;;;;;;;;5008537;28;19941;-80
2022/05/28 15:14:18;;;;;;;;;;;;;;;;;;5008409;28;20376;-79
2022/05/28 15:16:44;;;;;;;;;;;;;;;;;;5002675;28;19964;-79
2022/05/28 15:19:14;;;;;;;0.20;0.20;;;;;;;;;;5001743;28;20362;-78
2022/05/28 15:21:40;;;;;;;0.80;0.22;;;;;;;;;;5013306;28;20057;-77
2022/05/28 15:24:06;;;;;;;1.75;0.20;;;;;;;;;;5007942;28;20052;-78
2022/05/28 15:26:35;;;;;;;0.57;0.28;;;;;;;;;;5005649;28;20164;-80
2022/05/28 15:29:01;;;;;;;4.10;0.30;;;;;;;;;;5009613;28;20034;-80
2022/05/28 15:31:27;;;;;;;0.32;0.10;;;;;;;;;;5003719;28;21000;-80
2022/05/28 15:33:53;;;;;;;0.10;0.10;;;;;;;;;;5004335;28;20103;-80
2022/05/28 15:39:08;;;;;;;;;;;;;;;;;;4986349;28;19924;-81
2022/05/28 15:41:34;;;;;;;;;;;;;;;;;;5006960;28;19909;-82
2022/05/28 15:44:01;;;;;;;;;;;;;;;;;;5008283;28;20358;-82
2022/05/28 15:46:27;;;;;;;;;;;;;;;;;;5005435;28;19921;-81
2022/05/28 15:48:53;;;;;;;;;;;;;;;;;;5006025;28;19917;-81
2022/05/28 15:51:19;;;;;;;;;;;;;;;;;;4998784;28;20072;-80
2022/05/28 15:53:44;;;;;;;;;;;18.50;59.30;;;;;;5004510;28;19948;-80
2022/05/28 15:56:10;;;;;;;;;;;;;;;;;;5007244;28;19913;-82
2022/05/28 15:58:36;;;;;;;;;;;;;;;;;;5003685;28;19913;-83
2022/05/28 16:01:02;;;;;;;;;;;;;;;;;;5008050;28;19978;-81
2022/05/28 16:03:28;;;;;;;;;;;;;;;;;;4999665;28;19913;-80